TimeCST,TemperatureF,Dew PointF,Humidity,Sea Level PressureIn,VisibilityMPH,Wind Direction,Wind SpeedMPH,Gust SpeedMPH,PrecipitationIn,Events,Conditions,WindDirDegrees,DateUTC
12:53 AM,35.1,19.0,52,30.26,10.0,North,13.8,20.7,N/A,,Overcast,350,2013-03-02 06:53:00
1:53 AM,34.0,18.0,52,30.27,10.0,North,11.5,-,N/A,,Overcast,350,2013-03-02 07:53:00
2:53 AM,33.1,16.0,50,30.27,10.0,North,5.8,-,N/A,,Overcast,10,2013-03-02 08:53:00
3:53 AM,30.9,16.0,54,30.27,10.0,NNW,3.5,-,N/A,,Mostly Cloudy,340,2013-03-02 09:53:00
4:53 AM,28.9,16.0,58,30.28,10.0,Calm,Calm,-,N/A,,Partly Cloudy,0,2013-03-02 10:53:00
6:53 AM,28.0,19.0,69,30.32,10.0,WNW,5.8,-,N/A,,Clear,300,2013-03-02 12:53:00
7:53 AM,30.9,21.0,67,30.35,9.0,WNW,9.2,-,N/A,,Clear,290,2013-03-02 13:53:00
8:53 AM,34.0,21.0,59,30.36,8.0,NW,10.4,-,N/A,,Partly Cloudy,310,2013-03-02 14:53:00
9:53 AM,36.0,21.0,55,30.36,9.0,North,5.8,-,N/A,,Mostly Cloudy,10,2013-03-02 15:53:00
10:53 AM,39.0,21.0,49,30.34,10.0,NW,9.2,17.3,N/A,,Partly Cloudy,320,2013-03-02 16:53:00
11:53 AM,41.0,19.0,41,30.32,10.0,NW,3.5,-,N/A,,Clear,310,2013-03-02 17:53:00
12:53 PM,43.0,19.0,38,30.29,10.0,NW,9.2,-,N/A,,Clear,320,2013-03-02 18:53:00
1:53 PM,46.9,19.0,33,30.25,10.0,WNW,8.1,-,N/A,,Clear,300,2013-03-02 19:53:00
2:53 PM,48.9,15.1,26,30.24,10.0,North,11.5,19.6,N/A,,Clear,350,2013-03-02 20:53:00
3:53 PM,50.0,17.1,27,30.23,10.0,NNW,10.4,18.4,N/A,,Clear,340,2013-03-02 21:53:00
4:53 PM,48.9,17.1,28,30.24,10.0,NW,12.7,19.6,N/A,,Clear,320,2013-03-02 22:53:00
5:53 PM,46.0,16.0,30,30.25,10.0,North,8.1,-,N/A,,Clear,360,2013-03-02 23:53:00
7:53 PM,39.0,19.0,45,30.27,10.0,North,3.5,-,N/A,,Clear,360,2013-03-03 01:53:00
8:53 PM,33.1,21.9,64,30.27,10.0,Calm,Calm,-,N/A,,Clear,0,2013-03-03 02:53:00
9:53 PM,30.0,24.1,79,30.27,10.0,Calm,Calm,-,N/A,,Clear,0,2013-03-03 03:53:00
10:53 PM,28.0,24.1,85,30.27,10.0,Calm,Calm,-,N/A,,Clear,0,2013-03-03 04:53:00
11:53 PM,27.0,23.0,85,30.26,10.0,Calm,Calm,-,N/A,,Clear,0,2013-03-03 05:53:00